Terminal Aerodrome Forecast
Issued by NWS Sterling, VA

Current Version | Previous Version | Graphics & Text | Print | Product List | Glossary On
Versions: 1 2 3 4 5 6 7 8 9 10 11 12 13 14 15 16 17 18 19 20 21 22 23 24 25
000
FTUS41 KLWX 011131
TAFDCA
TAF
KDCA 011131Z 0112/0212 VRB03KT P6SM OVC080
     FM011400 VRB03KT 1SM -SN BR OVC025
     FM011500 18005KT 2SM -FZRASNPL BR BKN015 OVC030
     FM011800 17006KT 5SM -FZRA BR BKN009 OVC020
     FM020000 18007KT 3SM BR SCT009 BKN015 OVC035
     FM020600 19006KT P6SM OVC020
     FM020900 26010KT P6SM OVC050=

USA.gov is the U.S. government's official web portal to all federal, state and local government web resources and services.